ESNQ

Kiruna Airport

Sweden
METAR ESNQ 211250Z 22006KT CAVOK M19/M21 Q1020
Observed Flight Rules
Feb-21 @ 12:50 UTC (31 minutes ago) Visual Flight Rules
Wind Visibility Clouds
220° at 6 knots 10,000+ meters
  • Clear skies
Temperatures Readings
Current -19°C / -2°F
Dewpoint -21°C / -6°F
Humidity 84%
Altimeter 30.12" Hg
Pressure 1020 hPa
Elevation 452
METAR ESNQ 211250Z 22006KT CAVOK M19/M21 Q1020
Observed Flight Rules
Feb-21 @ 12:50 UTC
(31 minutes ago)
VFR
Wind Visibility
220° at 6 knots 10,000+ meters
Clouds
  • Clear skies
Temperature Dewpoint
-19°C / -2°F -21°C / -6°F
Humidity Altimeter Pressure
84% 30.12" Hg 1020 hPa